sensor_id;sensor_type;location;lat;lon;timestamp;temperature;humidity
72206;DHT22;60111;48.286;7.812;2024-03-22T00:00:40;11.30;75.70
72206;DHT22;60111;48.286;7.812;2024-03-22T00:03:13;11.30;75.80
72206;DHT22;60111;48.286;7.812;2024-03-22T00:05:46;11.20;76.40
72206;DHT22;60111;48.286;7.812;2024-03-22T00:08:19;11.20;76.60
72206;DHT22;60111;48.286;7.812;2024-03-22T00:10:51;11.10;76.60
72206;DHT22;60111;48.286;7.812;2024-03-22T00:13:24;11.10;76.90
72206;DHT22;60111;48.286;7.812;2024-03-22T00:15:57;11.10;77.70
72206;DHT22;60111;48.286;7.812;2024-03-22T00:18:29;11.00;78.60
72206;DHT22;60111;48.286;7.812;2024-03-22T00:21:02;11.00;78.70
72206;DHT22;60111;48.286;7.812;2024-03-22T00:23:35;11.00;78.80
72206;DHT22;60111;48.286;7.812;2024-03-22T00:26:07;10.90;79.30
72206;DHT22;60111;48.286;7.812;2024-03-22T00:28:40;10.80;79.40
72206;DHT22;60111;48.286;7.812;2024-03-22T00:31:13;10.80;79.80
72206;DHT22;60111;48.286;7.812;2024-03-22T00:33:45;10.80;80.10
72206;DHT22;60111;48.286;7.812;2024-03-22T00:36:18;10.80;80.10
72206;DHT22;60111;48.286;7.812;2024-03-22T00:38:51;10.70;80.30
72206;DHT22;60111;48.286;7.812;2024-03-22T00:41:24;10.70;80.50
72206;DHT22;60111;48.286;7.812;2024-03-22T00:43:58;10.70;80.30
72206;DHT22;60111;48.286;7.812;2024-03-22T00:46:30;10.70;80.20
72206;DHT22;60111;48.286;7.812;2024-03-22T00:49:02;10.70;80.00
72206;DHT22;60111;48.286;7.812;2024-03-22T00:51:35;10.70;80.00
72206;DHT22;60111;48.286;7.812;2024-03-22T00:54:08;10.70;80.10
72206;DHT22;60111;48.286;7.812;2024-03-22T00:56:40;10.70;79.50
72206;DHT22;60111;48.286;7.812;2024-03-22T00:59:13;10.70;79.10
72206;DHT22;60111;48.286;7.812;2024-03-22T01:01:45;10.70;79.70
72206;DHT22;60111;48.286;7.812;2024-03-22T01:04:18;10.70;80.50
72206;DHT22;60111;48.286;7.812;2024-03-22T01:06:51;10.70;80.30
72206;DHT22;60111;48.286;7.812;2024-03-22T01:09:24;10.60;80.40
72206;DHT22;60111;48.286;7.812;2024-03-22T01:11:56;10.60;80.70
72206;DHT22;60111;48.286;7.812;2024-03-22T01:14:29;10.60;80.80
72206;DHT22;60111;48.286;7.812;2024-03-22T01:17:02;10.60;80.50
72206;DHT22;60111;48.286;7.812;2024-03-22T01:19:34;10.50;80.10
72206;DHT22;60111;48.286;7.812;2024-03-22T01:22:07;10.60;79.20
72206;DHT22;60111;48.286;7.812;2024-03-22T01:24:40;10.60;79.00
72206;DHT22;60111;48.286;7.812;2024-03-22T01:27:12;10.50;79.00
72206;DHT22;60111;48.286;7.812;2024-03-22T01:29:46;10.50;79.40
72206;DHT22;60111;48.286;7.812;2024-03-22T01:32:18;10.40;80.30
72206;DHT22;60111;48.286;7.812;2024-03-22T01:34:52;10.40;80.30
72206;DHT22;60111;48.286;7.812;2024-03-22T01:37:24;10.30;80.80
72206;DHT22;60111;48.286;7.812;2024-03-22T01:39:57;10.30;80.80
72206;DHT22;60111;48.286;7.812;2024-03-22T01:42:30;10.30;81.20
72206;DHT22;60111;48.286;7.812;2024-03-22T01:45:03;10.30;81.50
72206;DHT22;60111;48.286;7.812;2024-03-22T01:50:30;10.30;81.50
72206;DHT22;60111;48.286;7.812;2024-03-22T01:53:04;10.30;81.20
72206;DHT22;60111;48.286;7.812;2024-03-22T01:55:37;10.30;81.30
72206;DHT22;60111;48.286;7.812;2024-03-22T01:58:10;10.20;81.40
72206;DHT22;60111;48.286;7.812;2024-03-22T02:00:43;10.20;81.20
72206;DHT22;60111;48.286;7.812;2024-03-22T02:03:15;10.20;81.20
72206;DHT22;60111;48.286;7.812;2024-03-22T02:05:48;10.30;81.50
72206;DHT22;60111;48.286;7.812;2024-03-22T02:08:21;10.30;81.20
72206;DHT22;60111;48.286;7.812;2024-03-22T02:10:54;10.30;80.80
72206;DHT22;60111;48.286;7.812;2024-03-22T02:13:27;10.40;80.10
72206;DHT22;60111;48.286;7.812;2024-03-22T02:16:02;10.50;79.60
72206;DHT22;60111;48.286;7.812;2024-03-22T02:18:34;10.50;78.50
72206;DHT22;60111;48.286;7.812;2024-03-22T02:21:07;10.60;77.70
72206;DHT22;60111;48.286;7.812;2024-03-22T02:23:40;10.60;77.70
72206;DHT22;60111;48.286;7.812;2024-03-22T02:26:13;10.60;78.50
72206;DHT22;60111;48.286;7.812;2024-03-22T02:28:45;10.60;78.80
72206;DHT22;60111;48.286;7.812;2024-03-22T02:31:18;10.60;78.90
72206;DHT22;60111;48.286;7.812;2024-03-22T02:33:52;10.50;79.00
72206;DHT22;60111;48.286;7.812;2024-03-22T02:36:25;10.50;79.80
72206;DHT22;60111;48.286;7.812;2024-03-22T02:38:58;10.50;79.80
72206;DHT22;60111;48.286;7.812;2024-03-22T02:41:30;10.40;79.50
72206;DHT22;60111;48.286;7.812;2024-03-22T02:44:03;10.40;79.30
72206;DHT22;60111;48.286;7.812;2024-03-22T02:46:36;10.40;79.20
72206;DHT22;60111;48.286;7.812;2024-03-22T02:49:08;10.40;79.40
72206;DHT22;60111;48.286;7.812;2024-03-22T02:51:41;10.30;80.30
72206;DHT22;60111;48.286;7.812;2024-03-22T02:54:14;10.20;80.90
72206;DHT22;60111;48.286;7.812;2024-03-22T02:56:47;10.10;81.60
72206;DHT22;60111;48.286;7.812;2024-03-22T02:59:19;10.10;81.90
72206;DHT22;60111;48.286;7.812;2024-03-22T03:01:52;10.10;81.90
72206;DHT22;60111;48.286;7.812;2024-03-22T03:04:25;10.30;79.70
72206;DHT22;60111;48.286;7.812;2024-03-22T03:06:57;10.40;79.00
72206;DHT22;60111;48.286;7.812;2024-03-22T03:09:30;10.30;79.50
72206;DHT22;60111;48.286;7.812;2024-03-22T03:12:03;10.30;79.70
72206;DHT22;60111;48.286;7.812;2024-03-22T03:14:35;10.30;79.80
72206;DHT22;60111;48.286;7.812;2024-03-22T03:17:08;10.30;80.10
72206;DHT22;60111;48.286;7.812;2024-03-22T03:19:41;10.30;80.60
72206;DHT22;60111;48.286;7.812;2024-03-22T03:22:13;10.30;80.20
72206;DHT22;60111;48.286;7.812;2024-03-22T03:24:46;10.30;79.70
72206;DHT22;60111;48.286;7.812;2024-03-22T03:27:19;10.30;80.10
72206;DHT22;60111;48.286;7.812;2024-03-22T03:29:51;10.30;80.40
72206;DHT22;60111;48.286;7.812;2024-03-22T03:32:24;10.30;80.70
72206;DHT22;60111;48.286;7.812;2024-03-22T03:34:56;10.30;81.30
72206;DHT22;60111;48.286;7.812;2024-03-22T03:37:29;10.30;81.30
72206;DHT22;60111;48.286;7.812;2024-03-22T03:40:02;10.20;81.40
72206;DHT22;60111;48.286;7.812;2024-03-22T03:42:35;10.30;81.70
72206;DHT22;60111;48.286;7.812;2024-03-22T03:45:07;10.20;81.40
72206;DHT22;60111;48.286;7.812;2024-03-22T03:47:40;10.20;81.20
72206;DHT22;60111;48.286;7.812;2024-03-22T03:50:12;10.30;81.10
72206;DHT22;60111;48.286;7.812;2024-03-22T03:52:45;10.30;80.80
72206;DHT22;60111;48.286;7.812;2024-03-22T03:55:18;10.30;80.60
72206;DHT22;60111;48.286;7.812;2024-03-22T03:57:51;10.30;80.50
72206;DHT22;60111;48.286;7.812;2024-03-22T04:00:23;10.40;80.30
72206;DHT22;60111;48.286;7.812;2024-03-22T04:02:56;10.40;79.90
72206;DHT22;60111;48.286;7.812;2024-03-22T04:05:29;10.30;79.90
72206;DHT22;60111;48.286;7.812;2024-03-22T04:08:02;10.30;79.90
72206;DHT22;60111;48.286;7.812;2024-03-22T04:10:35;10.40;79.90
72206;DHT22;60111;48.286;7.812;2024-03-22T04:13:07;10.40;79.70
72206;DHT22;60111;48.286;7.812;2024-03-22T04:15:40;10.40;79.70
72206;DHT22;60111;48.286;7.812;2024-03-22T04:18:13;10.40;79.50
72206;DHT22;60111;48.286;7.812;2024-03-22T04:20:56;10.40;79.50
72206;DHT22;60111;48.286;7.812;2024-03-22T04:23:29;10.40;79.90
72206;DHT22;60111;48.286;7.812;2024-03-22T04:26:02;10.40;80.00
72206;DHT22;60111;48.286;7.812;2024-03-22T04:28:35;10.40;80.00
72206;DHT22;60111;48.286;7.812;2024-03-22T04:31:08;10.40;80.50
72206;DHT22;60111;48.286;7.812;2024-03-22T04:33:42;10.40;80.70
72206;DHT22;60111;48.286;7.812;2024-03-22T04:36:15;10.30;80.90
72206;DHT22;60111;48.286;7.812;2024-03-22T04:38:48;10.40;81.30
72206;DHT22;60111;48.286;7.812;2024-03-22T04:41:21;10.30;81.60
72206;DHT22;60111;48.286;7.812;2024-03-22T04:43:53;10.30;81.80
72206;DHT22;60111;48.286;7.812;2024-03-22T04:46:27;10.30;82.10
72206;DHT22;60111;48.286;7.812;2024-03-22T04:48:59;10.30;82.50
72206;DHT22;60111;48.286;7.812;2024-03-22T04:51:32;10.40;82.80
72206;DHT22;60111;48.286;7.812;2024-03-22T04:54:05;10.40;82.70
72206;DHT22;60111;48.286;7.812;2024-03-22T04:56:39;10.30;82.40
72206;DHT22;60111;48.286;7.812;2024-03-22T04:59:12;10.30;82.30
72206;DHT22;60111;48.286;7.812;2024-03-22T05:01:44;10.40;81.20
72206;DHT22;60111;48.286;7.812;2024-03-22T05:04:17;10.30;81.20
72206;DHT22;60111;48.286;7.812;2024-03-22T05:06:49;10.30;81.80
72206;DHT22;60111;48.286;7.812;2024-03-22T05:09:22;10.30;82.60
72206;DHT22;60111;48.286;7.812;2024-03-22T05:11:55;10.30;82.70
72206;DHT22;60111;48.286;7.812;2024-03-22T05:14:27;10.20;82.60
72206;DHT22;60111;48.286;7.812;2024-03-22T05:17:00;10.20;82.10
72206;DHT22;60111;48.286;7.812;2024-03-22T05:19:32;10.20;82.00
72206;DHT22;60111;48.286;7.812;2024-03-22T05:22:05;10.10;82.20
72206;DHT22;60111;48.286;7.812;2024-03-22T05:24:38;10.10;82.60
72206;DHT22;60111;48.286;7.812;2024-03-22T05:27:11;10.10;83.00
72206;DHT22;60111;48.286;7.812;2024-03-22T05:29:44;10.00;83.00
72206;DHT22;60111;48.286;7.812;2024-03-22T05:32:17;10.00;83.00
72206;DHT22;60111;48.286;7.812;2024-03-22T05:34:49;10.00;83.20
72206;DHT22;60111;48.286;7.812;2024-03-22T05:37:22;10.10;83.30
72206;DHT22;60111;48.286;7.812;2024-03-22T05:39:55;10.00;83.20
72206;DHT22;60111;48.286;7.812;2024-03-22T05:42:28;10.00;83.20
72206;DHT22;60111;48.286;7.812;2024-03-22T05:45:00;10.00;83.20
72206;DHT22;60111;48.286;7.812;2024-03-22T05:47:34;10.00;83.60
72206;DHT22;60111;48.286;7.812;2024-03-22T05:50:07;10.00;83.90
72206;DHT22;60111;48.286;7.812;2024-03-22T05:52:40;10.00;83.90
72206;DHT22;60111;48.286;7.812;2024-03-22T05:55:14;10.00;83.50
72206;DHT22;60111;48.286;7.812;2024-03-22T05:57:46;10.00;83.00
72206;DHT22;60111;48.286;7.812;2024-03-22T06:00:19;10.10;83.00
72206;DHT22;60111;48.286;7.812;2024-03-22T06:02:52;10.10;83.20
72206;DHT22;60111;48.286;7.812;2024-03-22T06:05:24;10.10;83.60
72206;DHT22;60111;48.286;7.812;2024-03-22T06:07:57;10.10;83.70
72206;DHT22;60111;48.286;7.812;2024-03-22T06:10:30;10.10;83.80
72206;DHT22;60111;48.286;7.812;2024-03-22T06:13:02;10.20;83.80
72206;DHT22;60111;48.286;7.812;2024-03-22T06:15:36;10.20;83.60
72206;DHT22;60111;48.286;7.812;2024-03-22T06:18:08;10.20;83.20
72206;DHT22;60111;48.286;7.812;2024-03-22T06:20:41;10.30;82.70
72206;DHT22;60111;48.286;7.812;2024-03-22T06:23:15;10.30;82.20
72206;DHT22;60111;48.286;7.812;2024-03-22T06:25:54;10.30;81.90
72206;DHT22;60111;48.286;7.812;2024-03-22T06:28:28;10.40;81.60
72206;DHT22;60111;48.286;7.812;2024-03-22T06:31:01;10.40;81.30
72206;DHT22;60111;48.286;7.812;2024-03-22T06:33:34;10.40;81.00
72206;DHT22;60111;48.286;7.812;2024-03-22T06:36:08;10.40;80.80
72206;DHT22;60111;48.286;7.812;2024-03-22T06:38:41;10.50;81.10
72206;DHT22;60111;48.286;7.812;2024-03-22T06:41:13;10.50;80.80
72206;DHT22;60111;48.286;7.812;2024-03-22T06:43:46;10.60;80.10
72206;DHT22;60111;48.286;7.812;2024-03-22T06:46:19;10.80;79.60
72206;DHT22;60111;48.286;7.812;2024-03-22T06:48:52;10.90;79.30
72206;DHT22;60111;48.286;7.812;2024-03-22T06:51:26;11.00;78.50
72206;DHT22;60111;48.286;7.812;2024-03-22T06:53:58;11.30;77.00
72206;DHT22;60111;48.286;7.812;2024-03-22T06:56:31;11.40;76.20
72206;DHT22;60111;48.286;7.812;2024-03-22T06:59:03;11.60;75.40
72206;DHT22;60111;48.286;7.812;2024-03-22T07:01:36;11.80;75.00
72206;DHT22;60111;48.286;7.812;2024-03-22T07:04:09;11.90;74.90
72206;DHT22;60111;48.286;7.812;2024-03-22T07:06:42;12.10;73.60
72206;DHT22;60111;48.286;7.812;2024-03-22T07:09:14;12.20;74.00
72206;DHT22;60111;48.286;7.812;2024-03-22T07:11:47;12.40;72.20
72206;DHT22;60111;48.286;7.812;2024-03-22T07:14:20;12.50;71.90
72206;DHT22;60111;48.286;7.812;2024-03-22T07:16:52;12.60;71.50
72206;DHT22;60111;48.286;7.812;2024-03-22T07:19:25;12.70;71.50
72206;DHT22;60111;48.286;7.812;2024-03-22T07:21:59;12.90;71.60
72206;DHT22;60111;48.286;7.812;2024-03-22T07:24:31;13.00;72.30
72206;DHT22;60111;48.286;7.812;2024-03-22T07:27:04;13.10;71.10
72206;DHT22;60111;48.286;7.812;2024-03-22T07:29:37;13.20;70.60
72206;DHT22;60111;48.286;7.812;2024-03-22T07:32:10;13.30;69.60
72206;DHT22;60111;48.286;7.812;2024-03-22T07:34:45;13.30;69.20
72206;DHT22;60111;48.286;7.812;2024-03-22T07:37:18;13.40;69.00
72206;DHT22;60111;48.286;7.812;2024-03-22T07:39:52;13.50;68.90
72206;DHT22;60111;48.286;7.812;2024-03-22T07:42:24;13.50;68.70
72206;DHT22;60111;48.286;7.812;2024-03-22T07:44:57;13.60;68.60
72206;DHT22;60111;48.286;7.812;2024-03-22T07:47:30;13.80;67.90
72206;DHT22;60111;48.286;7.812;2024-03-22T07:50:04;13.80;67.90
72206;DHT22;60111;48.286;7.812;2024-03-22T07:52:36;13.90;67.60
72206;DHT22;60111;48.286;7.812;2024-03-22T07:55:09;14.00;66.40
72206;DHT22;60111;48.286;7.812;2024-03-22T07:57:42;14.00;67.10
72206;DHT22;60111;48.286;7.812;2024-03-22T08:00:15;14.00;67.00
72206;DHT22;60111;48.286;7.812;2024-03-22T08:02:48;14.10;68.00
72206;DHT22;60111;48.286;7.812;2024-03-22T08:05:20;14.20;66.60
72206;DHT22;60111;48.286;7.812;2024-03-22T08:07:53;14.20;66.20
72206;DHT22;60111;48.286;7.812;2024-03-22T08:10:25;14.30;65.90
72206;DHT22;60111;48.286;7.812;2024-03-22T08:12:58;14.40;64.20
72206;DHT22;60111;48.286;7.812;2024-03-22T08:15:32;14.50;62.50
72206;DHT22;60111;48.286;7.812;2024-03-22T08:18:05;14.60;61.60
72206;DHT22;60111;48.286;7.812;2024-03-22T08:20:37;14.60;61.50
72206;DHT22;60111;48.286;7.812;2024-03-22T08:23:12;14.70;62.10
72206;DHT22;60111;48.286;7.812;2024-03-22T08:25:45;14.80;60.90
72206;DHT22;60111;48.286;7.812;2024-03-22T08:28:18;14.80;61.20
72206;DHT22;60111;48.286;7.812;2024-03-22T08:30:51;14.90;59.60
72206;DHT22;60111;48.286;7.812;2024-03-22T08:33:24;14.90;60.70
72206;DHT22;60111;48.286;7.812;2024-03-22T08:35:57;15.00;60.50
72206;DHT22;60111;48.286;7.812;2024-03-22T08:38:30;15.00;62.20
72206;DHT22;60111;48.286;7.812;2024-03-22T08:41:02;15.20;60.80
72206;DHT22;60111;48.286;7.812;2024-03-22T08:43:35;15.20;60.30
72206;DHT22;60111;48.286;7.812;2024-03-22T08:46:08;15.40;59.30
72206;DHT22;60111;48.286;7.812;2024-03-22T08:48:40;15.30;59.60
72206;DHT22;60111;48.286;7.812;2024-03-22T08:51:14;15.40;60.10
72206;DHT22;60111;48.286;7.812;2024-03-22T08:53:47;15.50;59.70
72206;DHT22;60111;48.286;7.812;2024-03-22T08:56:19;15.60;58.80
72206;DHT22;60111;48.286;7.812;2024-03-22T08:58:52;15.60;59.60
72206;DHT22;60111;48.286;7.812;2024-03-22T09:01:25;15.60;58.90
72206;DHT22;60111;48.286;7.812;2024-03-22T09:03:58;15.70;57.80
72206;DHT22;60111;48.286;7.812;2024-03-22T09:06:30;15.80;57.30
72206;DHT22;60111;48.286;7.812;2024-03-22T09:09:03;15.80;58.00
72206;DHT22;60111;48.286;7.812;2024-03-22T09:11:36;15.90;58.90
72206;DHT22;60111;48.286;7.812;2024-03-22T09:14:08;16.10;57.50
72206;DHT22;60111;48.286;7.812;2024-03-22T09:16:41;16.30;57.20
72206;DHT22;60111;48.286;7.812;2024-03-22T09:19:14;16.40;57.50
72206;DHT22;60111;48.286;7.812;2024-03-22T09:21:46;16.40;56.20
72206;DHT22;60111;48.286;7.812;2024-03-22T09:24:19;16.40;56.00
72206;DHT22;60111;48.286;7.812;2024-03-22T09:26:51;16.50;56.80
72206;DHT22;60111;48.286;7.812;2024-03-22T09:29:24;16.70;55.00
72206;DHT22;60111;48.286;7.812;2024-03-22T09:31:58;16.80;54.90
72206;DHT22;60111;48.286;7.812;2024-03-22T09:34:30;16.90;55.50
72206;DHT22;60111;48.286;7.812;2024-03-22T09:37:03;16.90;54.80
72206;DHT22;60111;48.286;7.812;2024-03-22T09:39:36;17.00;54.70
72206;DHT22;60111;48.286;7.812;2024-03-22T09:42:11;16.90;55.50
72206;DHT22;60111;48.286;7.812;2024-03-22T09:44:49;16.90;55.20
72206;DHT22;60111;48.286;7.812;2024-03-22T09:47:23;17.00;55.10
72206;DHT22;60111;48.286;7.812;2024-03-22T09:49:59;17.20;54.50
72206;DHT22;60111;48.286;7.812;2024-03-22T09:52:33;17.20;54.40
72206;DHT22;60111;48.286;7.812;2024-03-22T09:55:06;17.30;53.10
72206;DHT22;60111;48.286;7.812;2024-03-22T09:57:40;17.20;54.00
72206;DHT22;60111;48.286;7.812;2024-03-22T10:00:13;17.30;55.30
72206;DHT22;60111;48.286;7.812;2024-03-22T10:02:49;17.50;53.10
72206;DHT22;60111;48.286;7.812;2024-03-22T10:05:22;17.50;52.40
72206;DHT22;60111;48.286;7.812;2024-03-22T10:07:55;17.60;53.00
72206;DHT22;60111;48.286;7.812;2024-03-22T10:10:28;17.90;52.70
72206;DHT22;60111;48.286;7.812;2024-03-22T10:13:01;18.10;53.10
72206;DHT22;60111;48.286;7.812;2024-03-22T10:15:34;18.20;51.40
72206;DHT22;60111;48.286;7.812;2024-03-22T10:18:06;18.20;52.20
72206;DHT22;60111;48.286;7.812;2024-03-22T10:20:40;18.40;51.70
72206;DHT22;60111;48.286;7.812;2024-03-22T10:23:13;18.50;51.00
72206;DHT22;60111;48.286;7.812;2024-03-22T10:25:47;18.60;51.50
72206;DHT22;60111;48.286;7.812;2024-03-22T10:28:20;18.60;51.40
72206;DHT22;60111;48.286;7.812;2024-03-22T10:30:52;18.60;50.50
72206;DHT22;60111;48.286;7.812;2024-03-22T10:33:27;18.80;51.20
72206;DHT22;60111;48.286;7.812;2024-03-22T10:36:02;18.80;48.70
72206;DHT22;60111;48.286;7.812;2024-03-22T10:38:36;18.80;48.90
72206;DHT22;60111;48.286;7.812;2024-03-22T10:41:11;18.80;47.00
72206;DHT22;60111;48.286;7.812;2024-03-22T10:43:44;18.80;46.40
72206;DHT22;60111;48.286;7.812;2024-03-22T10:46:17;19.00;48.80
72206;DHT22;60111;48.286;7.812;2024-03-22T10:48:51;19.20;45.90
72206;DHT22;60111;48.286;7.812;2024-03-22T10:51:25;19.20;45.60
72206;DHT22;60111;48.286;7.812;2024-03-22T10:53:59;19.10;45.50
72206;DHT22;60111;48.286;7.812;2024-03-22T10:56:33;19.10;44.60
72206;DHT22;60111;48.286;7.812;2024-03-22T10:59:06;19.10;45.60
72206;DHT22;60111;48.286;7.812;2024-03-22T11:01:39;19.20;47.50
72206;DHT22;60111;48.286;7.812;2024-03-22T11:04:15;19.40;44.40
72206;DHT22;60111;48.286;7.812;2024-03-22T11:06:52;19.60;44.90
72206;DHT22;60111;48.286;7.812;2024-03-22T11:09:23;19.60;41.90
72206;DHT22;60111;48.286;7.812;2024-03-22T11:11:57;19.50;41.40
72206;DHT22;60111;48.286;7.812;2024-03-22T11:14:31;19.70;43.10
72206;DHT22;60111;48.286;7.812;2024-03-22T11:17:03;19.90;41.60
72206;DHT22;60111;48.286;7.812;2024-03-22T11:19:37;20.00;41.50
72206;DHT22;60111;48.286;7.812;2024-03-22T11:22:10;20.30;42.60
72206;DHT22;60111;48.286;7.812;2024-03-22T11:24:43;20.50;39.80
72206;DHT22;60111;48.286;7.812;2024-03-22T11:27:16;20.50;39.70
72206;DHT22;60111;48.286;7.812;2024-03-22T11:29:48;20.50;39.90
72206;DHT22;60111;48.286;7.812;2024-03-22T11:32:22;20.60;41.00
72206;DHT22;60111;48.286;7.812;2024-03-22T11:34:57;20.90;38.50
72206;DHT22;60111;48.286;7.812;2024-03-22T11:37:29;20.90;37.70
72206;DHT22;60111;48.286;7.812;2024-03-22T11:40:04;20.70;37.70
72206;DHT22;60111;48.286;7.812;2024-03-22T11:42:49;20.50;36.60
72206;DHT22;60111;48.286;7.812;2024-03-22T11:45:15;20.50;37.90
72206;DHT22;60111;48.286;7.812;2024-03-22T11:47:48;20.70;38.40
72206;DHT22;60111;48.286;7.812;2024-03-22T11:50:21;20.80;40.60
72206;DHT22;60111;48.286;7.812;2024-03-22T11:52:53;21.00;38.70
72206;DHT22;60111;48.286;7.812;2024-03-22T11:55:27;21.20;41.00
72206;DHT22;60111;48.286;7.812;2024-03-22T11:58:00;21.20;39.10
72206;DHT22;60111;48.286;7.812;2024-03-22T12:00:33;21.10;38.30
72206;DHT22;60111;48.286;7.812;2024-03-22T12:03:05;21.10;41.10
72206;DHT22;60111;48.286;7.812;2024-03-22T12:05:40;21.00;39.90
72206;DHT22;60111;48.286;7.812;2024-03-22T12:08:13;20.70;40.00
72206;DHT22;60111;48.286;7.812;2024-03-22T12:10:45;20.70;41.30
72206;DHT22;60111;48.286;7.812;2024-03-22T12:13:18;20.50;41.80
72206;DHT22;60111;48.286;7.812;2024-03-22T12:15:51;20.50;41.30
72206;DHT22;60111;48.286;7.812;2024-03-22T12:18:23;20.30;41.70
72206;DHT22;60111;48.286;7.812;2024-03-22T12:20:56;20.10;41.00
72206;DHT22;60111;48.286;7.812;2024-03-22T12:23:29;20.10;41.70
72206;DHT22;60111;48.286;7.812;2024-03-22T12:26:02;20.10;41.10
72206;DHT22;60111;48.286;7.812;2024-03-22T12:28:34;20.20;41.10
72206;DHT22;60111;48.286;7.812;2024-03-22T12:31:08;20.30;41.10
72206;DHT22;60111;48.286;7.812;2024-03-22T12:33:45;20.30;41.00
72206;DHT22;60111;48.286;7.812;2024-03-22T12:36:17;20.10;40.80
72206;DHT22;60111;48.286;7.812;2024-03-22T12:38:50;20.00;42.50
72206;DHT22;60111;48.286;7.812;2024-03-22T12:41:23;20.00;40.70
72206;DHT22;60111;48.286;7.812;2024-03-22T12:43:56;20.10;41.30
72206;DHT22;60111;48.286;7.812;2024-03-22T12:46:30;20.20;41.10
72206;DHT22;60111;48.286;7.812;2024-03-22T12:49:02;20.30;40.00
72206;DHT22;60111;48.286;7.812;2024-03-22T12:51:36;20.30;39.50
72206;DHT22;60111;48.286;7.812;2024-03-22T12:54:09;20.10;41.10
72206;DHT22;60111;48.286;7.812;2024-03-22T12:56:42;20.00;40.70
72206;DHT22;60111;48.286;7.812;2024-03-22T12:59:14;19.90;42.10
72206;DHT22;60111;48.286;7.812;2024-03-22T13:01:47;19.90;41.70
72206;DHT22;60111;48.286;7.812;2024-03-22T13:04:20;19.80;41.10
72206;DHT22;60111;48.286;7.812;2024-03-22T13:06:52;19.70;41.10
72206;DHT22;60111;48.286;7.812;2024-03-22T13:09:25;19.70;42.40
72206;DHT22;60111;48.286;7.812;2024-03-22T13:11:58;19.70;41.10
72206;DHT22;60111;48.286;7.812;2024-03-22T13:14:30;19.80;41.00
72206;DHT22;60111;48.286;7.812;2024-03-22T13:17:03;19.90;40.80
72206;DHT22;60111;48.286;7.812;2024-03-22T13:19:36;19.90;41.00
72206;DHT22;60111;48.286;7.812;2024-03-22T13:22:08;19.90;39.80
72206;DHT22;60111;48.286;7.812;2024-03-22T13:24:42;19.80;39.30
72206;DHT22;60111;48.286;7.812;2024-03-22T13:27:14;19.80;39.60
72206;DHT22;60111;48.286;7.812;2024-03-22T13:29:47;19.70;40.20
72206;DHT22;60111;48.286;7.812;2024-03-22T13:32:20;19.70;40.20
72206;DHT22;60111;48.286;7.812;2024-03-22T13:34:53;19.70;40.60
72206;DHT22;60111;48.286;7.812;2024-03-22T13:37:26;19.70;42.30
72206;DHT22;60111;48.286;7.812;2024-03-22T13:39:59;19.80;41.70
72206;DHT22;60111;48.286;7.812;2024-03-22T13:42:32;19.80;39.50
72206;DHT22;60111;48.286;7.812;2024-03-22T13:45:06;19.80;39.20
72206;DHT22;60111;48.286;7.812;2024-03-22T13:47:39;19.80;39.80
72206;DHT22;60111;48.286;7.812;2024-03-22T13:50:11;19.70;39.90
72206;DHT22;60111;48.286;7.812;2024-03-22T13:52:44;19.80;39.70
72206;DHT22;60111;48.286;7.812;2024-03-22T13:55:17;19.80;39.70
72206;DHT22;60111;48.286;7.812;2024-03-22T13:57:49;19.90;39.90
72206;DHT22;60111;48.286;7.812;2024-03-22T14:00:22;19.90;39.00
72206;DHT22;60111;48.286;7.812;2024-03-22T14:02:56;19.90;40.40
72206;DHT22;60111;48.286;7.812;2024-03-22T14:05:29;20.00;39.30
72206;DHT22;60111;48.286;7.812;2024-03-22T14:08:02;19.90;39.20
72206;DHT22;60111;48.286;7.812;2024-03-22T14:10:35;19.90;39.20
72206;DHT22;60111;48.286;7.812;2024-03-22T14:13:08;20.10;38.60
72206;DHT22;60111;48.286;7.812;2024-03-22T14:15:41;20.50;38.70
72206;DHT22;60111;48.286;7.812;2024-03-22T14:18:13;20.60;39.30
72206;DHT22;60111;48.286;7.812;2024-03-22T14:20:46;20.80;39.60
72206;DHT22;60111;48.286;7.812;2024-03-22T14:23:19;20.90;38.60
72206;DHT22;60111;48.286;7.812;2024-03-22T14:26:11;20.90;38.00
72206;DHT22;60111;48.286;7.812;2024-03-22T14:28:44;20.80;39.20
72206;DHT22;60111;48.286;7.812;2024-03-22T14:31:19;20.80;37.30
72206;DHT22;60111;48.286;7.812;2024-03-22T14:33:51;20.80;37.30
72206;DHT22;60111;48.286;7.812;2024-03-22T14:36:24;20.70;37.70
72206;DHT22;60111;48.286;7.812;2024-03-22T14:38:57;20.80;38.80
72206;DHT22;60111;48.286;7.812;2024-03-22T14:41:30;20.80;38.60
72206;DHT22;60111;48.286;7.812;2024-03-22T14:44:03;20.80;37.50
72206;DHT22;60111;48.286;7.812;2024-03-22T14:46:36;20.80;36.50
72206;DHT22;60111;48.286;7.812;2024-03-22T14:49:08;20.80;38.10
72206;DHT22;60111;48.286;7.812;2024-03-22T14:51:41;20.60;37.10
72206;DHT22;60111;48.286;7.812;2024-03-22T14:54:16;20.60;38.80
72206;DHT22;60111;48.286;7.812;2024-03-22T14:56:48;20.50;38.40
72206;DHT22;60111;48.286;7.812;2024-03-22T14:59:21;20.50;39.40
72206;DHT22;60111;48.286;7.812;2024-03-22T15:01:54;20.50;39.90
72206;DHT22;60111;48.286;7.812;2024-03-22T15:04:27;20.60;39.50
72206;DHT22;60111;48.286;7.812;2024-03-22T15:07:00;20.50;39.40
72206;DHT22;60111;48.286;7.812;2024-03-22T15:09:32;20.50;40.30
72206;DHT22;60111;48.286;7.812;2024-03-22T15:12:06;20.50;40.80
72206;DHT22;60111;48.286;7.812;2024-03-22T15:14:40;20.50;41.60
72206;DHT22;60111;48.286;7.812;2024-03-22T15:17:13;20.60;40.90
72206;DHT22;60111;48.286;7.812;2024-03-22T15:19:47;20.60;40.10
72206;DHT22;60111;48.286;7.812;2024-03-22T15:22:20;20.50;41.70
72206;DHT22;60111;48.286;7.812;2024-03-22T15:24:54;20.50;40.70
72206;DHT22;60111;48.286;7.812;2024-03-22T15:27:26;20.50;41.60
72206;DHT22;60111;48.286;7.812;2024-03-22T15:29:59;20.60;39.90
72206;DHT22;60111;48.286;7.812;2024-03-22T15:32:32;20.50;38.80
72206;DHT22;60111;48.286;7.812;2024-03-22T15:35:05;20.50;39.80
72206;DHT22;60111;48.286;7.812;2024-03-22T15:37:39;20.50;38.90
72206;DHT22;60111;48.286;7.812;2024-03-22T15:40:12;20.50;38.70
72206;DHT22;60111;48.286;7.812;2024-03-22T15:42:46;20.50;39.30
72206;DHT22;60111;48.286;7.812;2024-03-22T15:45:18;20.50;38.20
72206;DHT22;60111;48.286;7.812;2024-03-22T15:47:51;20.50;38.60
72206;DHT22;60111;48.286;7.812;2024-03-22T15:50:24;20.40;39.40
72206;DHT22;60111;48.286;7.812;2024-03-22T15:52:56;20.40;39.30
72206;DHT22;60111;48.286;7.812;2024-03-22T15:55:30;20.40;39.10
72206;DHT22;60111;48.286;7.812;2024-03-22T15:58:03;20.50;38.60
72206;DHT22;60111;48.286;7.812;2024-03-22T16:00:35;20.50;39.80
72206;DHT22;60111;48.286;7.812;2024-03-22T16:03:08;20.50;41.20
72206;DHT22;60111;48.286;7.812;2024-03-22T16:05:50;20.50;39.30
72206;DHT22;60111;48.286;7.812;2024-03-22T16:08:23;20.70;39.30